Terminal Aerodrome Forecast
Issued by NWS

Home | Current Version | Previous Version | Text Only | Print | Product List | Glossary On
Versions: 1 2 3 4 5 6 7 8 9 10 11 12 13 14 15 16 17 18
000
FTUS43 KDVN 191400 AAA
TAFCID
TAF AMD
KCID 191457Z 1915/2012 15012KT P6SM SKC
     FM191600 18013G23KT P6SM SCT050 SCT250
     FM200200 18012KT P6SM BKN025=

USA.gov is the U.S. government's official web portal to all federal, state and local government web resources and services.